Gussing, Austria
Current Conditions -  °F | °C
As of 12:20 PM on Wednesday 26 Nov 2014 (Local Time) from LOWG Reporting Station
Broken Clouds Broken Clouds  
Wind Chill: 33°   Ceiling: 3500
Heat Index: 37°   Visibility: 6mi
Dew Point: 32°   Wind: 6mph
Humidity: 81%   Direction: 130°SE
Pressure: 30.18"   Gusts: NA
Location:  47.06°N, 16.32°E
Report Text: LOWG 261120Z 13005KT 100V170 9999 FEW015 BKN035 03/00 Q1022 NOSIG
Loading
Personal Weather Stations






























Interactive Weather Map New forecast layout! Learn more

10-Day Weather Forecast

Advertisements
Track Severe Weather on mobile